Time;durP1;ratioP1;P1;durP2;ratioP2;P2;SDS_P1;SDS_P2;PMS_P1;PMS_P2;Temp;Humidity;BMP_temperature;BMP_pressure;BME280_temperature;BME280_humidity;BME280_pressure;Samples;Min_cycle;Max_cycle;Signal;HPM_P1;HPM_P2
2022/09/11 00:02:20;;;;;;;1.10;0.40;;;;;;;14.20;100.00;98057.91;18494831;32;20442;-61
2022/09/11 00:12:22;;;;;;;1.35;0.40;;;;;;;14.21;100.00;98068.50;18285081;32;20100;-61
2022/09/11 00:22:26;;;;;;;1.35;0.43;;;;;;;14.20;100.00;98064.16;18304415;32;20065;-60
2022/09/11 00:32:28;;;;;;;2.12;0.43;;;;;;;14.23;100.00;98060.88;18303831;32;20081;-60
2022/09/11 00:42:30;;;;;;;4.87;0.80;;;;;;;14.21;100.00;98054.91;18327330;32;20065;-60
2022/09/11 00:52:39;;;;;;;1.40;0.50;;;;;;;14.16;100.00;98046.78;18353493;32;20239;-60
2022/09/11 01:02:46;;;;;;;1.62;0.70;;;;;;;14.15;100.00;98045.16;18353248;32;20132;-60
2022/09/11 01:13:05;;;;;;;1.95;0.68;;;;;;;14.16;100.00;98029.66;18425016;32;20077;-60
2022/09/11 01:23:35;;;;;;;0.68;0.47;;;;;;;14.15;100.00;98022.59;18437515;32;20041;-60
2022/09/11 01:33:45;;;;;;;0.57;0.50;;;;;;;14.03;100.00;98020.25;18437373;32;20049;-60
2022/09/11 01:43:56;;;;;;;1.73;0.73;;;;;;;13.92;100.00;98010.53;18436827;32;20075;-61
2022/09/11 01:54:01;;;;;;;2.45;0.60;;;;;;;13.77;100.00;98023.12;18447750;32;20437;-60
2022/09/11 02:04:06;;;;;;;0.95;0.55;;;;;;;13.62;100.00;98017.81;18473042;32;20057;-60
2022/09/11 02:14:14;;;;;;;;;;;;;;;13.53;100.00;98021.13;18499613;32;20354;-60
2022/09/11 02:24:19;;;;;;;1.20;0.60;;;;;;;13.56;100.00;98025.19;18498982;32;19993;-60
2022/09/11 02:34:27;;;;;;;1.17;0.50;;;;;;;13.62;100.00;98039.53;18497950;32;20053;-60
2022/09/11 02:44:41;;;;;;;1.58;0.60;;;;;;;13.66;100.00;98036.00;18483834;32;20064;-60
2022/09/11 02:54:55;;;;;;;1.23;0.70;;;;;;;13.70;100.00;98038.94;18497041;32;20079;-60
2022/09/11 03:04:57;;;;;;;1.23;0.73;;;;;;;13.73;100.00;98039.22;18476662;32;20067;-60
2022/09/11 03:15:00;;;;;;;2.58;0.62;;;;;;;13.79;100.00;98025.59;18496634;32;20045;-60
2022/09/11 03:25:03;;;;;;;0.95;0.50;;;;;;;13.81;100.00;98020.69;18481693;32;20049;-60
2022/09/11 03:35:06;;;;;;;1.75;0.37;;;;;;;13.84;100.00;98014.66;18481629;32;20049;-60
2022/09/11 03:45:08;;;;;;;1.10;0.50;;;;;;;13.88;100.00;98007.56;18497639;32;20402;-61
2022/09/11 03:55:11;;;;;;;1.42;0.70;;;;;;;13.90;100.00;97994.53;18507719;32;20112;-60
2022/09/11 04:05:13;;;;;;;0.45;0.40;;;;;;;13.91;100.00;97996.16;18507168;32;20105;-61
2022/09/11 04:15:15;;;;;;;1.35;0.60;;;;;;;13.88;100.00;97986.66;18506696;32;20049;-60
2022/09/11 04:25:18;;;;;;;2.85;0.60;;;;;;;13.88;100.00;97986.66;18492155;32;20072;-60
2022/09/11 04:35:20;;;;;;;0.82;0.73;;;;;;;13.86;100.00;97988.81;18505496;32;20068;-61
2022/09/11 04:45:22;;;;;;;1.00;0.40;;;;;;;13.85;100.00;98003.53;18505381;32;20062;-60
2022/09/11 04:55:25;;;;;;;1.67;0.75;;;;;;;13.83;100.00;98004.91;18497773;32;20092;-60
2022/09/11 05:05:27;;;;;;;3.08;0.40;;;;;;;13.80;100.00;98016.31;18503628;32;20057;-60
2022/09/11 05:15:33;;;;;;;2.40;0.77;;;;;;;13.77;100.00;98022.34;18503244;32;20049;-60
2022/09/11 05:25:35;;;;;;;2.05;0.70;;;;;;;13.75;100.00;98024.53;18489177;32;20434;-60
2022/09/11 05:35:38;;;;;;;1.15;0.45;;;;;;;13.63;100.00;98038.47;18363656;32;20351;-61
2022/09/11 05:45:41;;;;;;;2.67;0.62;;;;;;;13.64;100.00;98056.41;18363220;32;20467;-60
2022/09/11 05:55:44;;;;;;;2.37;0.60;;;;;;;13.57;100.00;98070.28;18350114;32;20468;-60
2022/09/11 06:05:46;;;;;;;0.85;0.57;;;;;;;13.54;100.00;98093.38;18372649;32;20393;-60
2022/09/11 06:15:49;;;;;;;3.22;0.62;;;;;;;13.66;100.00;98103.94;18434494;32;20098;-60
2022/09/11 06:25:53;;;;;;;1.45;0.62;;;;;;;13.85;100.00;98108.72;18434283;32;20383;-60
2022/09/11 06:35:59;;;;;;;1.13;0.50;;;;;;;14.10;100.00;98113.19;18433884;32;20158;-60
2022/09/11 06:46:06;;;;;;;0.50;0.30;;;;;;;14.57;100.00;98119.09;18431878;32;20076;-60
2022/09/11 06:56:11;;;;;;;0.73;0.40;;;;;;;15.12;100.00;98127.06;18457725;32;20393;-60
2022/09/11 07:06:16;;;;;;;1.25;0.45;;;;;;;15.41;100.00;98107.12;18482629;32;20087;-61
2022/09/11 07:16:19;;;;;;;0.57;0.40;;;;;;;15.61;100.00;98107.97;18358165;32;20073;-60
2022/09/11 07:26:23;;;;;;;1.25;0.57;;;;;;;15.80;100.00;98108.00;18344219;32;20282;-60
2022/09/11 07:36:30;;;;;;;0.68;0.40;;;;;;;16.02;100.00;98110.16;18230452;32;20128;-60
2022/09/11 07:46:34;;;;;;;0.60;0.20;;;;;;;16.29;100.00;98120.41;18250058;32;20092;-60
2022/09/11 07:56:37;;;;;;;0.98;0.60;;;;;;;16.60;100.00;98125.37;18356764;32;20361;-61
2022/09/11 08:06:40;;;;;;;0.62;0.50;;;;;;;16.97;100.00;98133.81;18377728;32;20101;-60
2022/09/11 08:16:43;;;;;;;1.10;0.40;;;;;;;17.37;100.00;98125.94;18494196;32;20090;-60
2022/09/11 08:26:46;;;;;;;0.93;0.60;;;;;;;17.83;97.32;98129.66;18493964;32;20056;-61
2022/09/11 08:36:50;;;;;;;1.30;0.73;;;;;;;18.20;89.96;98120.38;18363767;32;20128;-60
2022/09/11 08:47:05;;;;;;;0.70;0.50;;;;;;;18.99;83.84;98120.13;18366815;32;20077;-61
2022/09/11 08:57:34;;;;;;;2.00;0.70;;;;;;;19.52;82.74;98127.47;18366554;32;20054;-61
2022/09/11 09:08:12;;;;;;;2.10;0.47;;;;;;;19.45;78.83;98119.69;18380857;32;20072;-61
2022/09/11 09:18:43;;;;;;;2.30;0.70;;;;;;;18.82;77.20;98126.31;18439012;32;20049;-61
2022/09/11 09:28:49;;;;;;;0.75;0.30;;;;;;;18.15;84.60;98131.44;18437914;32;20089;-61
2022/09/11 09:38:52;;;;;;;1.05;0.50;;;;;;;17.88;87.39;98124.91;18437522;32;20050;-61
2022/09/11 09:48:56;;;;;;;1.42;0.80;;;;;;;17.77;93.69;98116.09;18434899;32;20531;-61
2022/09/11 09:59:25;;;;;;;0.57;0.40;;;;;;;18.15;87.29;98111.50;18479307;32;20076;-62
2022/09/11 10:09:29;;;;;;;1.08;0.68;;;;;;;19.17;82.46;98116.38;18466929;32;20061;-61
2022/09/11 10:19:41;;;;;;;1.90;0.50;;;;;;;19.85;77.36;98112.56;18492825;32;20080;-61
2022/09/11 10:29:50;;;;;;;0.52;0.30;;;;;;;20.36;71.37;98118.41;18498748;32;20474;-61
2022/09/11 10:40:16;;;;;;;0.65;0.50;;;;;;;20.20;71.21;98110.66;18484142;32;20057;-61
2022/09/11 10:50:24;;;;;;;1.20;0.40;;;;;;;20.27;72.17;98097.25;18497347;32;20083;-61
2022/09/11 11:00:30;;;;;;;1.48;0.40;;;;;;;20.70;71.48;98095.59;18431168;32;20331;-61
2022/09/11 11:11:02;;;;;;;0.70;0.40;;;;;;;21.04;68.49;98082.09;18432051;32;20045;-61
2022/09/11 11:21:11;;;;;;;0.93;0.40;;;;;;;21.28;68.08;98082.34;18431505;32;20061;-61
2022/09/11 11:31:14;;;;;;;3.40;0.77;;;;;;;21.37;63.63;98079.53;18431150;32;20057;-61
2022/09/11 11:41:31;;;;;;;1.35;0.62;;;;;;;21.76;65.38;98069.31;18431118;32;20061;-61
2022/09/11 11:51:59;;;;;;;1.37;0.57;;;;;;;22.06;61.12;98068.44;18430720;32;20116;-61
2022/09/11 12:02:08;;;;;;;1.20;0.70;;;;;;;22.29;57.61;98069.69;18492976;32;20080;-61
2022/09/11 12:12:11;;;;;;;2.60;0.62;;;;;;;22.32;59.93;98055.25;18489845;32;20090;-61
2022/09/11 12:22:37;;;;;;;1.12;0.50;;;;;;;22.31;62.00;98050.87;18492576;32;20081;-61
2022/09/11 12:32:44;;;;;;;2.55;0.70;;;;;;;23.07;61.23;98045.22;18303609;32;20111;-61
2022/09/11 12:43:17;;;;;;;1.12;0.52;;;;;;;23.79;58.65;98041.97;18303704;32;20138;-61
2022/09/11 12:53:27;;;;;;;1.37;0.50;;;;;;;24.08;55.63;98033.72;18289927;32;20389;-61
2022/09/11 13:03:31;;;;;;;1.37;0.40;;;;;;;24.53;55.93;98024.34;18331610;32;20057;-61
2022/09/11 13:13:34;;;;;;;1.40;0.52;;;;;;;24.48;53.13;98019.06;18437869;32;20064;-61
2022/09/11 13:23:37;;;;;;;2.25;0.40;;;;;;;24.51;46.43;98012.81;18437385;32;20553;-61
2022/09/11 13:33:40;;;;;;;1.58;0.50;;;;;;;24.51;50.87;97996.25;18437570;32;20366;-61
2022/09/11 13:43:47;;;;;;;1.62;0.43;;;;;;;25.04;49.00;97996.81;18437287;32;20057;-61
2022/09/11 13:54:11;;;;;;;0.90;0.52;;;;;;;25.24;46.22;97987.78;18446365;32;20434;-61
2022/09/11 14:04:15;;;;;;;0.32;0.22;;;;;;;25.44;53.87;97989.47;18500184;32;20071;-60
2022/09/11 14:14:23;;;;;;;1.15;0.30;;;;;;;25.45;52.09;97974.47;18499575;32;20112;-61
2022/09/11 14:24:33;;;;;;;0.68;0.28;;;;;;;24.73;51.13;97950.63;18361102;32;20050;-61
2022/09/11 14:34:36;;;;;;;0.62;0.35;;;;;;;23.93;58.98;97941.41;18360739;32;20525;-61
2022/09/11 14:44:40;;;;;;;0.70;0.35;;;;;;;23.45;49.90;97924.62;18359964;32;20070;-60
2022/09/11 14:54:44;;;;;;;1.17;0.57;;;;;;;23.31;52.77;97920.28;18370539;32;20388;-60
2022/09/11 15:04:50;;;;;;;1.52;0.40;;;;;;;22.96;47.28;97909.75;18432339;32;20057;-61
2022/09/11 15:14:55;;;;;;;0.90;0.32;;;;;;;22.54;49.21;97912.72;18430340;32;20045;-61
2022/09/11 15:25:00;;;;;;;0.45;0.20;;;;;;;22.27;54.28;97894.88;18431511;32;20049;-60
2022/09/11 15:35:05;;;;;;;0.82;0.30;;;;;;;21.90;56.76;97894.78;18431092;32;20061;-60
2022/09/11 15:45:08;;;;;;;0.80;0.32;;;;;;;21.54;57.83;97874.25;18438421;32;20104;-60
2022/09/11 15:55:11;;;;;;;0.82;0.30;;;;;;;21.36;57.68;97868.06;18461046;32;20069;-61
2022/09/11 16:05:14;;;;;;;0.60;0.30;;;;;;;20.98;59.74;97864.28;18507617;32;20065;-61
2022/09/11 16:15:17;;;;;;;2.45;0.30;;;;;;;20.69;60.28;97857.69;18492506;32;20448;-61
2022/09/11 16:25:21;;;;;;;0.77;0.33;;;;;;;20.44;64.40;97848.44;18479752;32;20049;-61
2022/09/11 16:35:24;;;;;;;3.22;0.37;;;;;;;20.09;67.84;97840.34;18499383;32;20193;-61
2022/09/11 16:45:27;;;;;;;;;;;;;;;19.67;69.43;97851.87;18491485;32;20096;-61
2022/09/11 16:55:30;;;;;;;1.48;0.62;;;;;;;19.25;71.53;97832.41;18490204;32;19971;-61
2022/09/11 17:05:32;;;;;;;4.10;0.60;;;;;;;18.86;74.26;97834.94;18503938;32;20101;-61
2022/09/11 17:15:35;;;;;;;0.60;0.40;;;;;;;18.49;76.39;97826.19;18503575;32;20077;-61
2022/09/11 17:25:39;;;;;;;0.28;0.20;;;;;;;18.11;78.56;97813.00;18502773;32;20064;-61
2022/09/11 17:35:42;;;;;;;0.50;0.32;;;;;;;17.74;81.52;97812.31;18502111;32;20475;-61
2022/09/11 17:45:45;;;;;;;1.70;0.30;;;;;;;17.34;82.48;97804.06;18501662;32;20440;-60
2022/09/11 17:55:47;;;;;;;0.57;0.35;;;;;;;16.96;84.42;97804.41;18500578;32;20100;-60
2022/09/11 18:05:50;;;;;;;0.68;0.50;;;;;;;16.60;85.82;97814.16;18499819;32;20433;-61
2022/09/11 18:15:52;;;;;;;0.62;0.50;;;;;;;16.29;87.71;97817.50;18500152;32;20058;-60
2022/09/11 18:25:56;;;;;;;0.85;0.40;;;;;;;16.00;88.39;97828.75;18492407;32;20429;-60
2022/09/11 18:36:07;;;;;;;2.60;0.50;;;;;;;15.71;89.54;97836.03;18498595;32;20072;-60
2022/09/11 18:46:10;;;;;;;0.70;0.40;;;;;;;15.43;90.28;97837.88;18498070;32;20091;-61
2022/09/11 18:56:12;;;;;;;0.62;0.40;;;;;;;15.20;91.52;97848.56;18496885;32;20109;-60
2022/09/11 19:06:18;;;;;;;0.80;0.50;;;;;;;14.99;92.87;97852.69;18496799;32;20052;-61
2022/09/11 19:16:21;;;;;;;1.80;0.60;;;;;;;14.83;94.48;97846.69;18496508;32;20099;-61
2022/09/11 19:26:27;;;;;;;1.87;0.50;;;;;;;14.64;95.12;97839.28;18482165;32;20090;-61
2022/09/11 19:36:33;;;;;;;0.95;0.60;;;;;;;14.46;96.43;97854.47;18481470;32;20061;-61
2022/09/11 19:46:36;;;;;;;2.87;1.02;;;;;;;14.34;97.61;97859.50;18481933;32;20069;-61
2022/09/11 19:56:41;;;;;;;1.10;0.60;;;;;;;14.18;98.63;97865.13;18480481;32;20511;-61
2022/09/11 20:06:44;;;;;;;5.78;0.57;;;;;;;13.99;98.52;97862.34;18494729;32;20069;-61
2022/09/11 20:16:45;;;;;;;2.10;0.80;;;;;;;13.85;99.64;97873.06;18474073;32;20072;-60
2022/09/11 20:26:47;;;;;;;4.60;0.60;;;;;;;13.72;100.00;97869.09;18496049;32;20162;-60
2022/09/11 20:36:50;;;;;;;2.87;0.65;;;;;;;13.63;100.00;97864.56;18505964;32;20094;-61
2022/09/11 20:46:52;;;;;;;1.98;0.70;;;;;;;13.48;100.00;97871.72;18491367;32;20069;-61
2022/09/11 20:56:54;;;;;;;1.33;0.80;;;;;;;13.33;100.00;97874.53;18504447;32;20362;-61
2022/09/11 21:06:56;;;;;;;1.60;0.60;;;;;;;13.26;100.00;97871.34;18477141;32;20459;-61
2022/09/11 21:17:01;;;;;;;1.45;0.73;;;;;;;13.19;100.00;97880.59;18503210;32;20057;-61
2022/09/11 21:27:03;;;;;;;1.75;0.77;;;;;;;13.09;100.00;97871.72;18502969;32;20049;-60
2022/09/11 21:37:06;;;;;;;1.20;0.60;;;;;;;12.94;100.00;97865.31;18487732;32;20399;-61
2022/09/11 21:47:08;;;;;;;0.60;0.50;;;;;;;12.83;100.00;97863.75;18501414;32;20088;-61
2022/09/11 21:57:10;;;;;;;2.70;0.93;;;;;;;12.71;100.00;97856.72;18500876;32;20086;-60
2022/09/11 22:07:16;;;;;;;2.05;0.88;;;;;;;12.65;100.00;97857.84;18493594;32;20099;-61
2022/09/11 22:17:18;;;;;;;0.80;0.60;;;;;;;12.57;100.00;97850.31;18500041;32;20053;-60
2022/09/11 22:27:21;;;;;;;1.23;0.50;;;;;;;12.49;100.00;97842.75;18485154;32;20083;-61
2022/09/11 22:37:23;;;;;;;1.52;0.80;;;;;;;12.36;100.00;97844.97;18498446;32;20394;-61
2022/09/11 22:47:26;;;;;;;2.65;0.80;;;;;;;12.31;100.00;97850.41;18359787;32;20084;-61
2022/09/11 22:57:29;;;;;;;2.45;0.88;;;;;;;12.20;100.00;97849.63;18231678;32;20100;-60
2022/09/11 23:07:31;;;;;;;0.75;0.62;;;;;;;12.11;100.00;97843.13;18231800;32;20075;-61
2022/09/11 23:17:33;;;;;;;0.85;0.62;;;;;;;11.99;100.00;97848.88;18331942;32;20133;-61
2022/09/11 23:27:36;;;;;;;1.10;0.68;;;;;;;11.87;100.00;97838.31;18355878;32;20057;-61
2022/09/11 23:37:38;;;;;;;4.93;1.00;;;;;;;11.75;100.00;97835.06;18431116;32;20061;-61
2022/09/11 23:47:46;;;;;;;1.20;0.60;;;;;;;11.72;100.00;97827.50;18430039;32;20076;-61
2022/09/11 23:57:52;;;;;;;1.03;0.80;;;;;;;11.59;100.00;97814.50;18465805;32;20125;-61
